createdAt,value
2022-12-09T00:02:21.443Z,12.03
2022-12-09T00:07:24.521Z,11.93
2022-12-09T00:12:27.525Z,12.83
2022-12-09T00:17:32.660Z,11.80
2022-12-09T00:22:35.613Z,12.00
2022-12-09T00:27:38.687Z,14.47
2022-12-09T00:32:43.065Z,13.53
2022-12-09T00:37:47.626Z,14.90
2022-12-09T00:42:51.885Z,9.90
2022-12-09T00:47:56.184Z,11.97
2022-12-09T00:52:59.040Z,10.87
2022-12-09T00:58:03.530Z,10.73
2022-12-09T01:03:08.331Z,11.50
2022-12-09T01:08:12.716Z,12.80
2022-12-09T01:13:16.993Z,12.70
2022-12-09T01:18:21.263Z,12.40
2022-12-09T01:23:24.142Z,11.50
2022-12-09T01:28:27.170Z,14.63
2022-12-09T01:33:31.565Z,12.43
2022-12-09T01:38:34.576Z,10.13
2022-12-09T01:43:38.398Z,13.43
2022-12-09T01:48:45.987Z,11.37
2022-12-09T01:53:51.590Z,11.80
2022-12-09T01:58:55.996Z,8.97
2022-12-09T02:04:01.091Z,13.00
2022-12-09T02:09:05.961Z,11.20
2022-12-09T02:14:19.405Z,13.53
2022-12-09T02:19:48.061Z,14.77
2022-12-09T02:24:58.453Z,19.13
2022-12-09T02:30:14.135Z,25.07
2022-12-09T02:35:25.216Z,17.90
2022-12-09T02:40:35.285Z,18.70
2022-12-09T02:45:39.820Z,16.97
2022-12-09T02:50:46.388Z,15.87
2022-12-09T02:55:50.499Z,12.73
2022-12-09T03:00:55.931Z,14.80
2022-12-09T03:06:05.503Z,13.67
2022-12-09T03:11:10.631Z,15.17
2022-12-09T03:16:23.425Z,14.50
2022-12-09T03:21:33.454Z,16.70
2022-12-09T03:26:39.647Z,12.83
2022-12-09T03:31:43.843Z,8.03
2022-12-09T03:36:52.020Z,12.63
2022-12-09T03:41:58.483Z,14.60
2022-12-09T03:47:01.940Z,14.53
2022-12-09T03:52:13.436Z,13.47
2022-12-09T03:57:19.968Z,15.83
2022-12-09T04:02:23.764Z,14.23
2022-12-09T04:07:28.405Z,14.57
2022-12-09T04:12:31.522Z,14.43
2022-12-09T04:17:34.552Z,14.60
2022-12-09T04:22:38.959Z,15.33
2022-12-09T04:27:41.847Z,14.30
2022-12-09T04:32:45.098Z,12.17
2022-12-09T04:37:49.840Z,13.93
2022-12-09T04:42:52.898Z,11.37
2022-12-09T04:47:55.845Z,12.00
2022-12-09T04:53:00.513Z,11.80
2022-12-09T04:58:03.920Z,12.33
2022-12-09T05:03:07.336Z,12.47
2022-12-09T05:08:12.284Z,26.40
2022-12-09T05:13:15.666Z,17.80
2022-12-09T05:18:18.990Z,18.10
2022-12-09T05:23:24.316Z,13.60
2022-12-09T05:28:27.471Z,15.50
2022-12-09T05:33:31.263Z,16.23
2022-12-09T05:38:36.525Z,18.40
2022-12-09T05:43:40.134Z,16.70
2022-12-09T05:48:43.441Z,16.80
2022-12-09T05:53:48.126Z,18.03
2022-12-09T05:58:52.146Z,15.33
2022-12-09T06:03:56.681Z,14.83
2022-12-09T06:09:03.571Z,16.70
2022-12-09T06:14:08.929Z,18.03
2022-12-09T06:19:12.984Z,14.37
2022-12-09T06:24:17.744Z,15.83
2022-12-09T06:29:20.733Z,18.83
2022-12-09T06:34:23.889Z,16.90
2022-12-09T06:39:28.542Z,17.63
2022-12-09T06:44:31.992Z,16.17
2022-12-09T06:49:35.235Z,16.43
2022-12-09T06:54:40.124Z,16.90
2022-12-09T06:59:43.452Z,20.63
2022-12-09T07:04:46.973Z,24.20
2022-12-09T07:09:51.968Z,20.90
2022-12-09T07:14:55.296Z,19.10
2022-12-09T07:20:04.908Z,18.57
2022-12-09T07:25:12.132Z,16.23
2022-12-09T07:30:15.727Z,17.60
2022-12-09T07:35:18.980Z,18.63
2022-12-09T07:40:24.041Z,20.83
2022-12-09T07:45:27.123Z,27.07
2022-12-09T07:50:30.618Z,20.27
2022-12-09T07:55:36.155Z,22.00
2022-12-09T08:00:39.191Z,20.13
2022-12-09T08:05:47.912Z,20.43
2022-12-09T08:10:52.491Z,20.53
2022-12-09T08:15:55.839Z,31.17
2022-12-09T08:20:58.832Z,25.20
2022-12-09T08:26:03.314Z,21.60
2022-12-09T08:31:10.599Z,26.23
2022-12-09T08:36:15.999Z,31.53
2022-12-09T08:41:22.963Z,27.40
2022-12-09T08:46:26.364Z,32.37
2022-12-09T08:51:30.441Z,32.67
2022-12-09T08:56:35.405Z,31.00
2022-12-09T09:01:39.006Z,33.43
2022-12-09T09:06:43.760Z,24.63
2022-12-09T09:11:48.917Z,23.97
2022-12-09T09:16:52.113Z,31.20
2022-12-09T09:21:56.995Z,25.17
2022-12-09T09:27:01.573Z,28.80
2022-12-09T09:32:04.874Z,28.27
2022-12-09T09:37:08.238Z,32.00
2022-12-09T09:42:18.481Z,33.93
2022-12-09T09:47:34.632Z,33.03
2022-12-09T09:52:42.938Z,26.03
2022-12-09T09:57:51.768Z,30.07
2022-12-09T10:03:01.060Z,33.70
2022-12-09T10:08:22.858Z,28.17
2022-12-09T10:13:38.528Z,31.47
2022-12-09T10:18:48.026Z,33.43
2022-12-09T10:23:51.857Z,30.70
2022-12-09T10:29:05.201Z,24.97
2022-12-09T10:34:10.119Z,25.17
2022-12-09T10:39:16.576Z,26.43
2022-12-09T10:44:23.207Z,27.90
2022-12-09T10:49:26.393Z,24.37
2022-12-09T10:54:34.438Z,25.00
2022-12-09T10:59:40.868Z,25.57
2022-12-09T11:04:45.565Z,30.80
2022-12-09T11:09:51.241Z,25.97
2022-12-09T11:14:59.084Z,24.80
2022-12-09T11:20:18.408Z,28.27
2022-12-09T11:25:25.194Z,26.80
2022-12-09T11:30:35.028Z,27.47
2022-12-09T11:35:52.856Z,25.40
2022-12-09T11:41:14.211Z,27.50
2022-12-09T11:46:23.102Z,23.60
2022-12-09T11:51:30.935Z,23.57
2022-12-09T11:56:35.837Z,29.20
2022-12-09T12:01:49.512Z,27.93
2022-12-09T12:06:57.727Z,24.20
2022-12-09T12:12:06.230Z,25.20
2022-12-09T12:17:23.240Z,23.57
2022-12-09T12:22:57.714Z,27.37
2022-12-09T12:28:18.601Z,29.37
2022-12-09T12:39:14.511Z,25.83
2022-12-09T12:44:57.039Z,25.50
2022-12-09T12:50:35.067Z,28.33
2022-12-09T12:55:49.071Z,30.23
2022-12-09T13:01:01.994Z,29.53
2022-12-09T13:06:11.061Z,29.10
2022-12-09T13:11:19.480Z,28.30
2022-12-09T13:16:32.445Z,30.90
2022-12-09T13:21:37.455Z,27.43
2022-12-09T13:26:48.320Z,30.37
2022-12-09T13:31:59.554Z,33.23
2022-12-09T13:37:04.048Z,31.30
2022-12-09T13:42:56.368Z,29.77
2022-12-09T13:48:02.963Z,39.97
2022-12-09T13:53:23.306Z,40.57
2022-12-09T13:58:54.672Z,51.77
2022-12-09T14:04:09.997Z,30.13
2022-12-09T14:09:27.132Z,29.40
2022-12-09T14:14:54.240Z,32.17
2022-12-09T14:20:05.175Z,34.93
2022-12-09T14:26:00.081Z,30.17
2022-12-09T14:31:08.633Z,35.93
2022-12-09T14:36:28.106Z,29.90
2022-12-09T14:41:35.822Z,34.00
2022-12-09T14:46:43.092Z,26.73
2022-12-09T14:51:49.894Z,33.20
2022-12-09T14:56:57.004Z,33.13
2022-12-09T15:02:03.494Z,34.90
2022-12-09T15:07:15.130Z,29.93
2022-12-09T15:12:19.151Z,35.80
2022-12-09T15:17:27.061Z,33.37
2022-12-09T15:22:32.118Z,32.80
2022-12-09T15:27:35.408Z,33.00
2022-12-09T15:32:40.680Z,41.97
2022-12-09T15:37:44.492Z,31.17
2022-12-09T15:42:50.378Z,33.20
2022-12-09T15:47:59.150Z,36.23
2022-12-09T15:53:09.096Z,34.40
2022-12-09T15:58:16.279Z,34.90
2022-12-09T16:03:23.516Z,33.60
2022-12-09T16:08:33.426Z,32.33
2022-12-09T16:13:37.732Z,28.93
2022-12-09T16:18:50.694Z,30.37
2022-12-09T16:23:56.529Z,35.10
2022-12-09T16:29:01.783Z,32.73
2022-12-09T16:34:06.448Z,40.20
2022-12-09T16:39:34.968Z,33.60
2022-12-09T16:44:40.545Z,51.83
2022-12-09T16:49:47.129Z,104.53
2022-12-09T16:54:51.484Z,51.40
2022-12-09T16:59:54.648Z,49.27
2022-12-09T17:05:00.556Z,36.33
2022-12-09T17:10:03.586Z,40.47
2022-12-09T17:15:07.611Z,45.37
2022-12-09T17:20:11.933Z,32.70
2022-12-09T17:25:14.906Z,42.63
2022-12-09T17:30:18.070Z,34.10
2022-12-09T17:35:22.598Z,36.03
2022-12-09T17:40:25.527Z,33.33
2022-12-09T17:45:28.617Z,36.20
2022-12-09T17:50:33.601Z,42.30
2022-12-09T17:55:38.853Z,38.70
2022-12-09T18:00:42.003Z,35.70
2022-12-09T18:05:46.256Z,43.17
2022-12-09T18:10:49.201Z,36.60
2022-12-09T18:15:54.425Z,38.53
2022-12-09T18:21:02.164Z,41.23
2022-12-09T18:26:07.077Z,42.30
2022-12-09T18:31:13.158Z,43.40
2022-12-09T18:36:19.196Z,35.67
2022-12-09T18:41:24.695Z,29.87
2022-12-09T18:46:31.162Z,37.43
2022-12-09T18:51:36.368Z,36.00
2022-12-09T18:56:39.332Z,35.80
2022-12-09T19:01:45.550Z,28.70
2022-12-09T19:06:52.701Z,31.90
2022-12-09T19:11:55.860Z,38.97
2022-12-09T19:16:58.789Z,32.77
2022-12-09T19:22:06.370Z,33.40
2022-12-09T19:27:09.307Z,29.47
2022-12-09T19:32:36.609Z,28.70
2022-12-09T19:37:36.512Z,28.80
2022-12-09T19:42:39.791Z,29.60
2022-12-09T19:47:42.732Z,28.07
2022-12-09T19:52:47.046Z,28.70
2022-12-09T19:57:50.389Z,32.97
2022-12-09T20:02:53.398Z,29.10
2022-12-09T20:07:57.804Z,31.50
2022-12-09T20:13:00.903Z,30.87
2022-12-09T20:18:03.987Z,31.83
2022-12-09T20:23:08.392Z,28.57
2022-12-09T20:28:11.326Z,33.87
2022-12-09T20:33:14.246Z,32.43
2022-12-09T20:38:18.514Z,28.50
2022-12-09T20:43:21.487Z,38.53
2022-12-09T20:48:24.394Z,34.33
2022-12-09T20:53:28.699Z,34.43
2022-12-09T20:58:31.680Z,28.10
2022-12-09T21:03:35.013Z,34.53
2022-12-09T21:08:39.413Z,34.63
2022-12-09T21:13:44.222Z,33.20
2022-12-09T21:18:47.806Z,35.37
2022-12-09T21:23:54.256Z,37.93
2022-12-09T21:28:57.517Z,34.03
2022-12-09T21:34:03.105Z,40.90
2022-12-09T21:39:09.072Z,38.90
2022-12-09T21:44:16.016Z,42.10
2022-12-09T21:49:18.946Z,44.87
2022-12-09T21:54:23.196Z,40.07
2022-12-09T21:59:26.282Z,43.40
2022-12-09T22:04:29.267Z,44.80
2022-12-09T22:09:33.666Z,46.87
2022-12-09T22:14:37.133Z,49.37
2022-12-09T22:19:40.021Z,48.23
2022-12-09T22:24:45.048Z,50.50
2022-12-09T22:29:47.928Z,46.73
2022-12-09T22:34:50.821Z,57.63
2022-12-09T22:39:55.099Z,50.33
2022-12-09T22:44:58.020Z,55.77
2022-12-09T22:50:00.907Z,59.03
2022-12-09T22:55:06.349Z,52.30
2022-12-09T23:00:11.537Z,58.00
2022-12-09T23:05:14.487Z,58.60
2022-12-09T23:10:18.983Z,67.00
2022-12-09T23:15:21.935Z,60.10
2022-12-09T23:20:24.884Z,61.43
2022-12-09T23:25:29.179Z,59.60
2022-12-09T23:30:32.106Z,67.00
2022-12-09T23:35:38.855Z,59.87
2022-12-09T23:40:51.361Z,66.40
2022-12-09T23:45:54.303Z,60.43
2022-12-09T23:50:57.266Z,56.13
2022-12-09T23:56:01.498Z,57.90
